Time;durP1;ratioP1;P1;durP2;ratioP2;P2;SDS_P1;SDS_P2;PMS_P1;PMS_P2;Temp;Humidity;BMP_temperature;BMP_pressure;BME280_temperature;BME280_humidity;BME280_pressure;Samples;Min_cycle;Max_cycle;Signal;HPM_P1;HPM_P2
2022/05/03 00:00:16;;;;;;;3.47;3.27;;;10.90;99.90;;;;;;5052484;28;20211;-46
2022/05/03 00:02:52;;;;;;;3.40;3.30;;;10.90;99.90;;;;;;5060029;28;20243;-47
2022/05/03 00:05:31;;;;;;;3.80;3.50;;;10.90;99.90;;;;;;5065204;22;20285;-50
2022/05/03 00:08:05;;;;;;;3.97;3.63;;;10.90;99.90;;;;;;5040813;28;20269;-50
2022/05/03 00:10:40;;;;;;;3.73;3.63;;;10.90;99.90;;;;;;5037745;28;20205;-50
2022/05/03 00:13:10;;;;;;;3.30;3.17;;;11.00;99.90;;;;;;5038574;28;20200;-50
2022/05/03 00:15:41;;;;;;;3.77;3.57;;;10.90;99.90;;;;;;5017827;28;20603;-50
2022/05/03 00:18:09;;;;;;;3.60;3.30;;;10.90;99.90;;;;;;5019448;28;20222;-50
2022/05/03 00:20:36;;;;;;;4.17;3.97;;;10.90;99.90;;;;;;5019411;28;20205;-51
2022/05/03 00:23:05;;;;;;;3.40;3.20;;;10.80;99.90;;;;;;5025933;28;20201;-50
2022/05/03 00:25:33;;;;;;;4.83;4.43;;;10.80;99.90;;;;;;5021899;28;20217;-50
2022/05/03 00:28:02;;;;;;;4.20;3.90;;;10.80;99.90;;;;;;5015024;28;20206;-50
2022/05/03 00:30:29;;;;;;;4.57;4.33;;;10.70;99.90;;;;;;5015555;28;21898;-50
2022/05/03 00:32:56;;;;;;;4.70;4.40;;;10.80;99.90;;;;;;5016768;28;20201;-50
2022/05/03 00:35:25;;;;;;;4.07;3.87;;;10.90;99.90;;;;;;5028654;28;20247;-50
2022/05/03 00:37:51;;;;;;;4.53;4.33;;;10.80;99.90;;;;;;5020013;28;20261;-50
2022/05/03 00:40:22;;;;;;;4.07;3.87;;;10.80;99.90;;;;;;5027751;28;20201;-50
2022/05/03 00:42:59;;;;;;;4.30;3.90;;;10.70;99.90;;;;;;5012259;28;20203;-51
2022/05/03 00:45:36;;;;;;;5.13;4.77;;;10.70;99.90;;;;;;5026281;28;20224;-50
2022/05/03 00:48:13;;;;;;;5.53;5.13;;;10.60;99.90;;;;;;5013802;28;20298;-50
2022/05/03 00:50:43;;;;;;;7.93;5.50;;;10.70;99.90;;;;;;5019641;28;20666;-50
2022/05/03 00:53:23;;;;;;;4.33;4.03;;;10.70;99.90;;;;;;5020722;28;20259;-50
2022/05/03 00:56:21;;;;;;;3.77;3.47;;;10.60;99.90;;;;;;5018943;28;20225;-50
2022/05/03 00:58:58;;;;;;;4.77;4.47;;;10.60;99.90;;;;;;5020615;28;20205;-51
2022/05/03 01:01:33;;;;;;;4.50;4.30;;;10.50;99.90;;;;;;5028853;28;20202;-50
2022/05/03 01:04:12;;;;;;;3.67;3.47;;;10.50;99.90;;;;;;5016533;28;20228;-50
2022/05/03 01:06:51;;;;;;;5.53;5.07;;;10.50;99.90;;;;;;5017280;28;20267;-50
2022/05/03 01:09:25;;;;;;;4.13;3.90;;;10.50;99.90;;;;;;5019672;28;20222;-55
2022/05/03 01:12:02;;;;;;;4.47;3.87;;;10.50;99.90;;;;;;5024752;28;20255;-50
2022/05/03 01:14:40;;;;;;;7.80;3.73;;;10.50;99.90;;;;;;5014606;28;21054;-50
2022/05/03 01:17:15;;;;;;;3.57;3.43;;;10.40;99.90;;;;;;5019545;28;20266;-50
2022/05/03 01:19:57;;;;;;;5.43;5.00;;;10.30;99.90;;;;;;5019432;28;20261;-49
2022/05/03 01:22:58;;;;;;;4.60;4.20;;;10.30;99.90;;;;;;5024117;28;20212;-50
2022/05/03 01:25:47;;;;;;;4.30;3.90;;;10.30;99.90;;;;;;5028536;28;20316;-50
2022/05/03 01:28:29;;;;;;;3.87;3.57;;;10.20;99.90;;;;;;5020783;28;20204;-51
2022/05/03 01:31:03;;;;;;;3.93;3.23;;;10.20;99.90;;;;;;5019349;28;20233;-50
2022/05/03 01:33:34;;;;;;;4.60;4.30;;;10.10;99.90;;;;;;5016026;28;20328;-50
2022/05/03 01:36:03;;;;;;;3.97;3.77;;;10.10;99.90;;;;;;5022854;28;20224;-50
2022/05/03 01:38:40;;;;;;;4.10;3.90;;;10.00;99.90;;;;;;5024591;28;20272;-50
2022/05/03 01:41:24;;;;;;;4.43;3.43;;;10.00;99.90;;;;;;5028296;28;20258;-50
2022/05/03 01:44:07;;;;;;;3.80;3.60;;;10.00;99.90;;;;;;5020563;28;20271;-50
2022/05/03 01:46:37;;;;;;;4.47;4.17;;;10.00;99.90;;;;;;5031551;28;20196;-50
2022/05/03 01:52:18;;;;;;;4.30;4.00;;;10.00;99.90;;;;;;5020892;28;20207;-50
2022/05/03 01:55:05;;;;;;;3.77;3.57;;;9.90;99.90;;;;;;5020568;28;20289;-50
2022/05/03 01:57:47;;;;;;;4.07;3.87;;;9.90;99.90;;;;;;5013399;28;20197;-50
2022/05/03 02:00:14;;;;;;;3.07;2.97;;;9.80;99.90;;;;;;5018010;28;20205;-50
2022/05/03 02:02:54;;;;;;;6.10;4.57;;;9.70;99.90;;;;;;5022787;28;20213;-50
2022/05/03 02:05:54;;;;;;;5.10;4.70;;;9.70;99.90;;;;;;5020280;28;20239;-50
2022/05/03 02:08:23;;;;;;;5.33;4.90;;;9.70;99.90;;;;;;5020393;28;20201;-51
2022/05/03 02:11:11;;;;;;;4.63;4.33;;;9.60;99.90;;;;;;5027076;28;20242;-50
2022/05/03 02:17:06;;;;;;;4.00;3.70;;;9.60;99.90;;;;;;5023348;28;20223;-50
2022/05/03 02:20:09;;;;;;;4.47;4.17;;;9.50;99.90;;;;;;5024488;28;20253;-49
2022/05/03 02:23:09;;;;;;;3.73;3.53;;;9.50;99.90;;;;;;5019189;28;20204;-50
2022/05/03 02:25:47;;;;;;;4.93;4.53;;;9.40;99.90;;;;;;5012373;28;20236;-50
2022/05/03 02:28:20;;;;;;;4.03;3.73;;;9.30;99.90;;;;;;5015837;28;20201;-50
2022/05/03 02:30:50;;;;;;;3.80;3.60;;;9.30;99.90;;;;;;5021138;28;20278;-51
2022/05/03 02:33:23;;;;;;;5.10;4.80;;;9.40;99.90;;;;;;5015970;28;20264;-50
2022/05/03 02:35:55;;;;;;;4.13;3.93;;;9.30;99.90;;;;;;5029319;28;20221;-50
2022/05/03 02:38:30;;;;;;;4.53;4.23;;;9.30;99.90;;;;;;5028370;28;20269;-50
2022/05/03 02:41:03;;;;;;;4.40;4.10;;;9.30;99.90;;;;;;5029340;28;20208;-50
2022/05/03 02:43:32;;;;;;;4.57;4.27;;;9.30;99.90;;;;;;5019523;28;20209;-50
2022/05/03 02:46:13;;;;;;;3.37;3.17;;;9.30;99.90;;;;;;5020120;28;20199;-51
2022/05/03 02:48:48;;;;;;;4.83;4.53;;;9.20;99.90;;;;;;5026889;28;20622;-50
2022/05/03 02:51:18;;;;;;;4.93;4.53;;;9.20;99.90;;;;;;5012842;28;20728;-50
2022/05/03 02:53:51;;;;;;;4.07;3.87;;;9.20;99.90;;;;;;5028469;28;20725;-50
2022/05/03 02:56:23;;;;;;;4.83;4.37;;;9.10;99.90;;;;;;5025401;28;20220;-49
2022/05/03 02:59:01;;;;;;;5.90;5.37;;;9.10;99.90;;;;;;5021826;28;20205;-50
2022/05/03 03:01:47;;;;;;;5.27;4.97;;;9.00;99.90;;;;;;5025497;28;20253;-50
2022/05/03 03:04:20;;;;;;;5.00;4.50;;;9.10;99.90;;;;;;5020441;28;20223;-50
2022/05/03 03:06:49;;;;;;;5.50;5.10;;;9.20;99.90;;;;;;5025099;28;20260;-50
2022/05/03 03:09:23;;;;;;;5.10;4.60;;;9.10;99.90;;;;;;5026078;28;20198;-50
2022/05/03 03:12:03;;;;;;;6.00;5.57;;;9.10;99.90;;;;;;5027099;28;20642;-50
2022/05/03 03:14:36;;;;;;;5.20;4.90;;;9.00;99.90;;;;;;5022937;28;20298;-50
2022/05/03 03:17:06;;;;;;;5.67;5.27;;;9.00;99.90;;;;;;5024888;28;20219;-50
2022/05/03 03:19:54;;;;;;;4.77;4.47;;;9.00;99.90;;;;;;5017157;28;20237;-50
2022/05/03 03:22:21;;;;;;;5.03;4.60;;;9.00;99.90;;;;;;5015767;28;20732;-50
2022/05/03 03:24:50;;;;;;;5.50;5.10;;;8.90;99.90;;;;;;5022511;28;20217;-50
2022/05/03 03:27:22;;;;;;;4.93;4.40;;;8.90;99.90;;;;;;5028444;28;20291;-50
2022/05/03 03:29:52;;;;;;;5.43;5.00;;;8.90;99.90;;;;;;5018800;28;20207;-50
2022/05/03 03:32:20;;;;;;;5.63;5.17;;;8.80;99.90;;;;;;5019179;28;20682;-50
2022/05/03 03:34:50;;;;;;;5.03;4.73;;;8.80;99.90;;;;;;5018576;28;20372;-50
2022/05/03 03:37:19;;;;;;;4.83;4.53;;;8.90;99.90;;;;;;5015796;28;20224;-50
2022/05/03 03:39:46;;;;;;;5.00;4.70;;;8.90;99.90;;;;;;5014191;28;20204;-50
2022/05/03 03:42:13;;;;;;;4.73;4.53;;;8.90;99.90;;;;;;5023173;28;20201;-50
2022/05/03 03:44:42;;;;;;;4.77;4.43;;;8.80;99.90;;;;;;5024048;28;20282;-50
2022/05/03 03:47:10;;;;;;;5.80;5.30;;;8.90;99.90;;;;;;5016219;28;20643;-50
2022/05/03 03:49:38;;;;;;;5.10;4.77;;;8.90;99.90;;;;;;5017913;28;20215;-50
2022/05/03 03:52:06;;;;;;;6.03;5.63;;;8.90;99.90;;;;;;5016839;28;20696;-50
2022/05/03 03:54:35;;;;;;;5.10;4.70;;;8.90;99.90;;;;;;5013397;28;20224;-50
2022/05/03 03:57:03;;;;;;;4.30;4.00;;;8.80;99.90;;;;;;5021969;28;20790;-51
2022/05/03 03:59:31;;;;;;;5.33;4.93;;;8.90;99.90;;;;;;5022826;28;20243;-50
2022/05/03 04:02:00;;;;;;;4.43;4.07;;;8.80;99.90;;;;;;5020139;28;20203;-50
2022/05/03 04:04:31;;;;;;;5.23;4.93;;;8.80;99.90;;;;;;5015951;28;20294;-50
2022/05/03 04:07:00;;;;;;;5.97;5.47;;;8.80;99.90;;;;;;5018055;28;20201;-49
2022/05/03 04:09:27;;;;;;;4.40;4.20;;;8.70;99.90;;;;;;5021380;28;20586;-50
2022/05/03 04:11:54;;;;;;;7.43;5.00;;;8.70;99.90;;;;;;5026439;28;20202;-50
2022/05/03 04:14:21;;;;;;;5.97;5.57;;;8.70;99.90;;;;;;5019283;28;20226;-50
2022/05/03 04:16:48;;;;;;;5.60;5.10;;;8.70;99.90;;;;;;5021297;28;20324;-50
2022/05/03 04:19:17;;;;;;;5.40;5.00;;;8.70;99.90;;;;;;5012203;28;20307;-50
2022/05/03 04:21:47;;;;;;;4.60;4.30;;;8.70;99.90;;;;;;5015607;28;20281;-50
2022/05/03 04:24:14;;;;;;;6.53;5.93;;;8.70;99.90;;;;;;5017062;28;20629;-50
2022/05/03 04:26:42;;;;;;;7.17;6.57;;;8.80;99.90;;;;;;5022959;28;20241;-50
2022/05/03 04:29:09;;;;;;;5.43;5.03;;;8.90;99.90;;;;;;5021237;28;20201;-50
2022/05/03 04:31:37;;;;;;;5.37;5.07;;;9.00;99.90;;;;;;5023502;28;20259;-49
2022/05/03 04:34:05;;;;;;;5.40;5.00;;;9.00;99.90;;;;;;5020377;28;20603;-50
2022/05/03 04:36:36;;;;;;;4.70;4.37;;;9.10;99.90;;;;;;5013767;28;20267;-50
2022/05/03 04:39:03;;;;;;;5.50;5.20;;;9.20;99.90;;;;;;5027744;28;20267;-49
2022/05/03 04:41:31;;;;;;;5.60;5.27;;;9.30;99.90;;;;;;5019244;28;20204;-49
2022/05/03 04:43:58;;;;;;;5.63;5.07;;;9.70;99.90;;;;;;5017612;28;20224;-50
2022/05/03 04:46:25;;;;;;;5.30;5.00;;;10.30;99.90;;;;;;5019350;28;20212;-50
2022/05/03 04:48:52;;;;;;;6.30;5.13;;;11.00;99.90;;;;;;5021635;28;20209;-50
2022/05/03 04:51:20;;;;;;;6.53;5.87;;;11.60;99.90;;;;;;5019594;28;20192;-50
2022/05/03 04:53:49;;;;;;;16.03;11.63;;;12.20;99.90;;;;;;5028591;28;20781;-50
2022/05/03 04:56:18;;;;;;;12.40;10.07;;;12.80;99.90;;;;;;5015869;28;20214;-50
2022/05/03 04:58:46;;;;;;;7.33;6.70;;;13.30;99.90;;;;;;5017523;28;20210;-51
2022/05/03 05:01:13;;;;;;;5.50;5.13;;;13.00;99.90;;;;;;5009981;28;20214;-50
2022/05/03 05:03:40;;;;;;;5.40;5.03;;;13.00;99.90;;;;;;5014693;28;20244;-50
2022/05/03 05:06:07;;;;;;;4.50;4.30;;;13.50;99.90;;;;;;5017745;28;20263;-50
2022/05/03 05:08:34;;;;;;;5.40;5.00;;;14.20;99.90;;;;;;5011218;28;20261;-50
2022/05/03 05:11:02;;;;;;;5.53;5.10;;;14.90;99.90;;;;;;5017373;28;20199;-50
2022/05/03 05:13:29;;;;;;;4.77;4.50;;;15.50;99.90;;;;;;5020014;28;20287;-50
2022/05/03 05:15:56;;;;;;;6.30;5.90;;;16.00;99.90;;;;;;5024528;28;20329;-50
2022/05/03 05:18:24;;;;;;;7.47;6.87;;;16.40;99.90;;;;;;5032991;28;20202;-51
2022/05/03 05:20:51;;;;;;;7.73;7.13;;;16.80;99.90;;;;;;5029502;28;20286;-50
2022/05/03 05:23:18;;;;;;;6.93;6.33;;;17.20;99.90;;;;;;5025939;28;20285;-51
2022/05/03 05:25:45;;;;;;;6.73;6.20;;;17.50;99.90;;;;;;5013607;28;20661;-51
2022/05/03 05:28:13;;;;;;;7.03;6.43;;;17.70;99.90;;;;;;5013664;28;20246;-51
2022/05/03 05:30:40;;;;;;;6.03;5.60;;;17.80;99.90;;;;;;5021891;28;20203;-50
2022/05/03 05:33:07;;;;;;;6.63;5.97;;;17.60;99.90;;;;;;5022802;28;20266;-50
2022/05/03 05:35:35;;;;;;;6.10;5.70;;;17.80;99.90;;;;;;5023846;28;20218;-51
2022/05/03 05:38:02;;;;;;;5.30;4.90;;;18.10;99.90;;;;;;5021791;28;20191;-51
2022/05/03 05:40:30;;;;;;;5.90;5.60;;;18.50;99.90;;;;;;5016586;28;20302;-51
2022/05/03 05:42:57;;;;;;;5.70;5.33;;;18.60;99.90;;;;;;5025042;28;20668;-51
2022/05/03 05:45:26;;;;;;;5.30;5.10;;;18.30;99.90;;;;;;5024766;28;20229;-51
2022/05/03 05:47:53;;;;;;;6.23;5.87;;;17.60;99.90;;;;;;5022415;28;20544;-51
2022/05/03 05:50:20;;;;;;;6.80;6.40;;;17.00;99.90;;;;;;5030569;28;22192;-50
2022/05/03 05:55:31;;;;;;;5.47;4.80;;;16.00;99.90;;;;;;5024304;28;20222;-51
2022/05/03 05:57:58;;;;;;;6.33;5.80;;;15.50;99.90;;;;;;5027124;28;20621;-50
2022/05/03 06:00:26;;;;;;;5.47;5.03;;;15.30;99.90;;;;;;5023262;28;20202;-50
2022/05/03 06:02:54;;;;;;;5.77;5.37;;;15.20;99.90;;;;;;5012787;28;20206;-50
2022/05/03 06:05:21;;;;;;;6.87;6.37;;;15.10;99.90;;;;;;5020088;28;20281;-50
2022/05/03 06:07:47;;;;;;;5.40;5.10;;;15.20;99.90;;;;;;5021904;28;20265;-51
2022/05/03 06:10:14;;;;;;;5.57;5.27;;;15.40;99.90;;;;;;5012749;28;20542;-51
2022/05/03 06:12:41;;;;;;;5.93;5.60;;;15.80;99.90;;;;;;5061786;22;20470;-47
2022/05/03 06:15:09;;;;;;;6.27;5.87;;;16.10;99.90;;;;;;5065397;28;20202;-46
2022/05/03 06:17:40;;;;;;;5.40;5.00;;;15.90;99.90;;;;;;5063872;28;20301;-47
2022/05/03 06:20:08;;;;;;;9.70;7.30;;;15.80;99.90;;;;;;5067769;28;20201;-47
2022/05/03 06:22:35;;;;;;;5.80;5.40;;;15.60;99.90;;;;;;5067839;28;20301;-47
2022/05/03 06:25:03;;;;;;;6.80;6.30;;;15.90;99.90;;;;;;5070461;28;20338;-47
2022/05/03 06:27:31;;;;;;;6.53;6.03;;;16.40;99.90;;;;;;5062061;28;20633;-47
2022/05/03 06:29:57;;;;;;;5.90;5.40;;;16.90;99.90;;;;;;5071378;28;20209;-47
2022/05/03 06:32:24;;;;;;;6.30;5.80;;;17.00;99.90;;;;;;5061545;28;20221;-47
2022/05/03 06:34:53;;;;;;;7.17;6.47;;;17.00;99.90;;;;;;5052291;28;20197;-46
2022/05/03 06:37:20;;;;;;;6.80;6.37;;;17.10;99.90;;;;;;5065231;28;20217;-47
2022/05/03 06:39:47;;;;;;;6.93;6.53;;;17.00;99.90;;;;;;5065206;28;20246;-46
2022/05/03 06:42:14;;;;;;;6.93;6.50;;;17.40;99.90;;;;;;5073389;28;20221;-47
2022/05/03 06:44:41;;;;;;;6.47;5.97;;;18.00;99.90;;;;;;5073492;28;20292;-47
2022/05/03 06:47:08;;;;;;;8.17;7.03;;;18.90;99.90;;;;;;5073467;28;20201;-47
2022/05/03 06:49:36;;;;;;;7.13;6.13;;;19.90;99.90;;;;;;5066406;28;20201;-47
2022/05/03 06:52:05;;;;;;;6.73;6.13;;;20.40;99.90;;;;;;5070785;28;20213;-47
2022/05/03 06:54:32;;;;;;;7.40;6.73;;;20.50;99.90;;;;;;5059623;28;20622;-46
2022/05/03 06:56:59;;;;;;;6.67;6.17;;;20.40;99.90;;;;;;5066327;28;20629;-46
2022/05/03 06:59:26;;;;;;;5.63;5.33;;;20.40;99.90;;;;;;5073275;28;20255;-47
2022/05/03 07:01:52;;;;;;;6.20;5.60;;;20.20;99.90;;;;;;5071152;28;20270;-46
2022/05/03 07:04:20;;;;;;;6.00;5.67;;;20.10;99.90;;;;;;5058228;28;20570;-47
2022/05/03 07:06:46;;;;;;;4.83;4.43;;;20.30;99.90;;;;;;5072222;28;20193;-47
2022/05/03 07:09:15;;;;;;;5.47;5.27;;;20.80;99.90;;;;;;5064848;28;20278;-47
2022/05/03 07:11:42;;;;;;;10.47;6.43;;;20.50;99.90;;;;;;5061024;28;20225;-47
2022/05/03 07:14:09;;;;;;;4.27;4.00;;;20.50;99.90;;;;;;5060325;28;20194;-47
2022/05/03 07:16:39;;;;;;;5.87;5.47;;;20.90;99.90;;;;;;5067976;28;20267;-47
2022/05/03 07:24:36;;;;;;;3.60;3.50;;;21.20;99.90;;;;;;5057780;28;20259;-47
2022/05/03 07:27:04;;;;;;;4.67;3.77;;;21.60;99.90;;;;;;5066618;28;20193;-47
2022/05/03 07:29:31;;;;;;;3.97;3.77;;;21.40;99.70;;;;;;5073343;28;20205;-47
2022/05/03 07:31:58;;;;;;;5.07;4.87;;;21.20;99.90;;;;;;5058829;28;20224;-47
2022/05/03 07:34:25;;;;;;;5.10;4.60;;;21.20;99.10;;;;;;5058091;28;20197;-47
2022/05/03 07:36:52;;;;;;;4.03;3.80;;;20.80;99.40;;;;;;5072458;28;20217;-47
2022/05/03 07:39:19;;;;;;;6.40;4.57;;;20.70;99.50;;;;;;5072693;28;20570;-47
2022/05/03 07:41:49;;;;;;;3.93;3.63;;;20.20;99.90;;;;;;5067882;28;20217;-47
2022/05/03 07:44:16;;;;;;;3.33;3.23;;;19.40;99.90;;;;;;5062336;28;20263;-47
2022/05/03 07:46:46;;;;;;;4.23;3.97;;;19.20;99.90;;;;;;5052379;28;20671;-46
2022/05/03 07:49:13;;;;;;;3.83;3.40;;;18.60;99.90;;;;;;5054824;28;20567;-47
2022/05/03 07:51:42;;;;;;;5.20;4.70;;;18.50;99.90;;;;;;5060069;28;20198;-47
2022/05/03 07:54:09;;;;;;;4.40;4.10;;;18.50;99.90;;;;;;5052273;28;20210;-47
2022/05/03 07:56:36;;;;;;;5.13;4.40;;;18.70;99.90;;;;;;5052271;28;20202;-47
2022/05/03 07:59:06;;;;;;;5.07;4.80;;;19.50;99.90;;;;;;5070444;28;20662;-47
2022/05/03 08:01:34;;;;;;;4.63;4.23;;;20.20;99.90;;;;;;5056801;28;20202;-47
2022/05/03 08:04:01;;;;;;;5.27;5.00;;;20.60;99.90;;;;;;5051981;28;20198;-47
2022/05/03 08:06:28;;;;;;;5.53;4.70;;;20.70;99.90;;;;;;5054128;28;20202;-47
2022/05/03 08:08:56;;;;;;;5.53;5.17;;;21.20;99.90;;;;;;5055801;28;20614;-47
2022/05/03 08:11:23;;;;;;;5.27;4.87;;;21.10;99.90;;;;;;5051767;28;20236;-47
2022/05/03 08:13:52;;;;;;;4.17;3.87;;;21.80;99.90;;;;;;5061866;28;20270;-47
2022/05/03 08:16:21;;;;;;;4.60;4.30;;;23.00;99.90;;;;;;5070280;28;20209;-47
2022/05/03 08:18:49;;;;;;;4.60;4.37;;;23.90;99.90;;;;;;5062396;28;20221;-47
2022/05/03 08:21:16;;;;;;;4.77;4.23;;;24.20;98.40;;;;;;5057987;28;20675;-46
2022/05/03 08:23:43;;;;;;;4.43;4.13;;;23.70;98.00;;;;;;5055278;28;20217;-47
2022/05/03 08:26:11;;;;;;;4.87;4.43;;;24.50;97.90;;;;;;5051835;28;20198;-47
2022/05/03 08:28:38;;;;;;;4.83;4.43;;;23.90;97.70;;;;;;5051922;28;20205;-47
2022/05/03 08:31:05;;;;;;;5.27;4.97;;;23.40;98.50;;;;;;5058881;28;20209;-47
2022/05/03 08:33:33;;;;;;;5.23;4.63;;;23.60;97.40;;;;;;5067631;28;20225;-47
2022/05/03 08:36:00;;;;;;;4.63;4.17;;;23.80;98.30;;;;;;5060384;28;20198;-47
2022/05/03 08:43:58;;;;;;;3.90;3.70;;;24.00;94.90;;;;;;5070824;28;20200;-47
2022/05/03 08:46:25;;;;;;;4.10;3.90;;;22.30;95.90;;;;;;5069345;28;20204;-47
2022/05/03 08:49:00;;;;;;;4.13;3.60;;;22.00;96.40;;;;;;5066266;28;20274;-47
2022/05/03 08:51:29;;;;;;;8.37;4.13;;;21.70;97.50;;;;;;5053819;28;20199;-47
2022/05/03 08:53:57;;;;;;;4.47;4.27;;;21.20;98.40;;;;;;5051504;28;20194;-46
2022/05/03 08:56:26;;;;;;;5.23;4.83;;;20.70;99.90;;;;;;5051590;28;20255;-47
2022/05/03 08:58:53;;;;;;;4.70;4.40;;;20.40;99.90;;;;;;5051585;28;20699;-47
2022/05/03 09:01:20;;;;;;;5.37;5.07;;;20.20;99.90;;;;;;5051460;28;20193;-47
2022/05/03 09:03:47;;;;;;;5.90;5.40;;;20.20;99.90;;;;;;5053998;28;20316;-47
2022/05/03 09:06:15;;;;;;;6.33;5.73;;;19.80;99.90;;;;;;5060234;28;20283;-47
2022/05/03 09:08:42;;;;;;;5.60;5.20;;;19.50;99.90;;;;;;5054737;28;20186;-47
2022/05/03 09:11:17;;;;;;;6.43;5.83;;;19.20;99.90;;;;;;5051503;28;20271;-47
2022/05/03 09:13:45;;;;;;;5.20;4.90;;;19.00;99.90;;;;;;5066738;28;20229;-46
2022/05/03 09:16:15;;;;;;;5.50;5.20;;;19.00;99.90;;;;;;5070255;28;20231;-47
2022/05/03 09:18:43;;;;;;;5.20;4.90;;;19.00;99.90;;;;;;5070017;28;20231;-46
2022/05/03 09:24:11;;;;;;;6.93;6.57;;;19.50;99.90;;;;;;5059169;28;20200;-47
2022/05/03 09:26:39;;;;;;;7.23;6.73;;;20.10;99.90;;;;;;5065041;28;20697;-46
2022/05/03 09:29:08;;;;;;;7.03;6.63;;;20.60;99.90;;;;;;5057276;28;20288;-47
2022/05/03 09:31:37;;;;;;;8.47;7.87;;;21.00;99.90;;;;;;5049910;28;20204;-47
2022/05/03 09:34:05;;;;;;;7.93;7.43;;;21.50;99.90;;;;;;5061115;28;20225;-47
2022/05/03 09:36:47;;;;;;;6.73;6.23;;;21.60;99.90;;;;;;5056047;28;20198;-47
2022/05/03 09:39:23;;;;;;;7.57;7.17;;;21.50;99.90;;;;;;5051507;28;20206;-47
2022/05/03 09:42:07;;;;;;;6.50;6.10;;;21.10;99.90;;;;;;5052426;28;20308;-47
2022/05/03 09:44:36;;;;;;;8.27;7.37;;;21.00;99.90;;;;;;5056078;28;20202;-47
2022/05/03 09:47:09;;;;;;;8.40;7.97;;;20.90;99.90;;;;;;5050887;28;20206;-47
2022/05/03 09:49:37;;;;;;;9.47;8.77;;;20.50;99.90;;;;;;5050786;28;20198;-47
2022/05/03 09:52:06;;;;;;;10.60;9.60;;;19.90;99.90;;;;;;5062857;28;20229;-47
2022/05/03 09:54:46;;;;;;;11.73;8.70;;;19.60;99.90;;;;;;5055547;28;20256;-47
2022/05/03 09:57:20;;;;;;;9.70;8.90;;;19.60;99.90;;;;;;5054212;28;20205;-47
2022/05/03 09:59:48;;;;;;;9.67;8.97;;;19.70;99.90;;;;;;5063676;28;20214;-47
2022/05/03 10:02:18;;;;;;;10.77;10.07;;;20.00;99.90;;;;;;5055599;28;20218;-46
2022/05/03 10:04:45;;;;;;;11.40;10.43;;;20.20;99.90;;;;;;5063139;28;20659;-47
2022/05/03 10:07:14;;;;;;;11.13;10.33;;;20.00;99.90;;;;;;5071786;28;20258;-46
2022/05/03 10:09:42;;;;;;;11.07;10.27;;;19.70;99.90;;;;;;5053753;28;20194;-47
2022/05/03 10:12:11;;;;;;;12.77;11.63;;;19.70;99.90;;;;;;5058341;28;20225;-47
2022/05/03 10:14:38;;;;;;;13.30;12.17;;;19.60;99.90;;;;;;5059377;28;20255;-47
2022/05/03 10:22:49;;;;;;;13.17;12.17;;;19.10;99.90;;;;;;5059543;28;20566;-46
2022/05/03 10:25:28;;;;;;;15.23;12.43;;;19.40;99.90;;;;;;5062819;28;20247;-46
2022/05/03 10:27:56;;;;;;;13.93;12.83;;;19.50;99.90;;;;;;5053666;28;20193;-46
2022/05/03 10:30:26;;;;;;;13.93;12.63;;;19.10;99.90;;;;;;5064442;28;20205;-46
2022/05/03 10:33:36;;;;;;;13.33;12.23;;;19.10;99.90;;;;;;5063206;28;20307;-46
2022/05/03 10:36:03;;;;;;;13.27;12.20;;;19.20;99.90;;;;;;5070006;28;20734;-46
2022/05/03 10:38:39;;;;;;;11.23;10.30;;;19.40;99.90;;;;;;5071853;28;20229;-47
2022/05/03 10:41:08;;;;;;;9.30;8.37;;;19.50;99.90;;;;;;5052662;28;20252;-47
2022/05/03 10:43:37;;;;;;;11.17;10.20;;;19.50;99.90;;;;;;5052797;28;20210;-47
2022/05/03 10:46:11;;;;;;;9.83;9.03;;;19.90;99.90;;;;;;5063050;28;20225;-47
2022/05/03 10:48:41;;;;;;;9.13;8.40;;;20.50;99.90;;;;;;5056742;28;20205;-47
2022/05/03 10:51:10;;;;;;;8.77;8.17;;;21.20;99.90;;;;;;5052733;28;20594;-46
2022/05/03 10:53:40;;;;;;;9.30;8.70;;;21.70;99.90;;;;;;5053342;28;20229;-47
2022/05/03 10:56:19;;;;;;;10.00;9.40;;;21.70;99.90;;;;;;5055862;28;20198;-47
2022/05/03 10:59:10;;;;;;;9.53;8.77;;;21.80;99.90;;;;;;5073403;28;20225;-46
2022/05/03 11:02:07;;;;;;;8.20;7.70;;;21.90;99.90;;;;;;5064969;28;20285;-47
2022/05/03 11:04:36;;;;;;;4.40;4.20;;;21.70;99.90;;;;;;5069209;28;20244;-47
2022/05/03 11:07:05;;;;;;;5.30;5.03;;;21.40;99.90;;;;;;5072697;28;20728;-47
2022/05/03 11:09:34;;;;;;;5.27;5.00;;;20.90;99.90;;;;;;5073362;28;20193;-47
2022/05/03 11:12:08;;;;;;;5.37;5.10;;;21.00;99.90;;;;;;5072833;28;20239;-47
2022/05/03 11:14:55;;;;;;;6.67;6.30;;;20.90;99.90;;;;;;5072990;28;20201;-47
2022/05/03 11:17:23;;;;;;;6.53;6.23;;;20.70;99.90;;;;;;5063002;28;20201;-47
2022/05/03 11:20:00;;;;;;;6.97;6.47;;;20.70;99.90;;;;;;5064812;28;20198;-47
2022/05/03 11:22:29;;;;;;;6.67;6.33;;;20.50;99.90;;;;;;5054048;28;20259;-47
2022/05/03 11:24:59;;;;;;;7.23;6.83;;;20.30;99.90;;;;;;5071628;28;20740;-47
2022/05/03 11:27:26;;;;;;;8.03;7.30;;;20.10;99.90;;;;;;5066815;28;20205;-46
2022/05/03 11:29:58;;;;;;;6.67;6.27;;;20.30;99.90;;;;;;5054880;28;20198;-47
2022/05/03 11:32:30;;;;;;;6.40;6.10;;;20.30;99.90;;;;;;5063178;28;20280;-47
2022/05/03 11:35:06;;;;;;;7.17;6.57;;;20.50;99.90;;;;;;5059703;28;20552;-47
2022/05/03 11:37:34;;;;;;;8.10;7.60;;;20.80;99.90;;;;;;5065192;28;20263;-47
2022/05/03 11:40:11;;;;;;;7.30;6.80;;;21.00;99.90;;;;;;5055848;28;20755;-47
2022/05/03 11:42:43;;;;;;;7.37;6.97;;;21.30;99.90;;;;;;5071641;28;20274;-47
2022/05/03 11:45:12;;;;;;;7.43;6.93;;;21.40;99.90;;;;;;5059046;28;20208;-47
2022/05/03 11:47:41;;;;;;;7.43;7.00;;;21.60;99.90;;;;;;5053194;28;20259;-47
2022/05/03 11:50:09;;;;;;;9.20;8.50;;;21.80;99.90;;;;;;5072031;28;20212;-47
2022/05/03 11:58:09;;;;;;;8.33;7.83;;;21.80;99.60;;;;;;5052332;28;20236;-47
2022/05/03 12:00:49;;;;;;;7.27;6.70;;;21.60;99.60;;;;;;5058025;28;20632;-47
2022/05/03 12:03:17;;;;;;;10.30;9.50;;;21.60;99.80;;;;;;5059462;28;20217;-47
2022/05/03 12:06:02;;;;;;;9.27;8.47;;;21.60;99.60;;;;;;5060209;28;20202;-47
2022/05/03 12:08:30;;;;;;;7.70;7.10;;;21.50;99.90;;;;;;5052027;28;20724;-48
2022/05/03 12:10:58;;;;;;;9.00;8.17;;;21.60;99.90;;;;;;5051874;28;20210;-47
2022/05/03 12:13:34;;;;;;;8.73;8.23;;;21.70;99.90;;;;;;5016460;22;20236;-55
2022/05/03 12:16:16;;;;;;;7.33;6.83;;;21.90;98.90;;;;;;4969946;28;20274;-55
2022/05/03 12:18:46;;;;;;;7.77;7.23;;;21.90;98.20;;;;;;4990242;28;20236;-55
2022/05/03 12:21:15;;;;;;;8.00;7.60;;;21.80;98.40;;;;;;4962131;28;20291;-55
2022/05/03 12:23:44;;;;;;;8.20;7.70;;;21.60;98.50;;;;;;5001032;28;20266;-55
2022/05/03 12:26:20;;;;;;;8.97;8.30;;;21.50;97.80;;;;;;4962120;28;20258;-55
2022/05/03 12:28:48;;;;;;;7.80;7.40;;;21.50;99.90;;;;;;4970030;28;20181;-55
2022/05/03 12:31:17;;;;;;;7.67;6.97;;;21.50;99.10;;;;;;4969587;28;20209;-55
2022/05/03 12:33:46;;;;;;;8.10;7.40;;;21.60;99.90;;;;;;4969641;28;20231;-55
2022/05/03 12:36:27;;;;;;;7.57;7.03;;;21.80;99.90;;;;;;4968881;28;20208;-55
2022/05/03 12:38:54;;;;;;;9.27;6.53;;;21.80;99.90;;;;;;5002873;28;20212;-55
2022/05/03 12:41:27;;;;;;;7.67;6.97;;;21.80;98.30;;;;;;4969542;28;20204;-55
2022/05/03 12:44:01;;;;;;;6.47;6.17;;;21.80;99.90;;;;;;5002543;28;20312;-55
2022/05/03 12:46:29;;;;;;;5.70;5.50;;;21.90;99.90;;;;;;4969529;28;20200;-55
2022/05/03 12:48:57;;;;;;;5.47;5.27;;;21.80;99.90;;;;;;4969736;28;20622;-55
2022/05/03 12:51:25;;;;;;;5.43;5.17;;;22.00;99.90;;;;;;4990311;28;20264;-55
2022/05/03 12:53:53;;;;;;;5.50;5.07;;;22.00;99.90;;;;;;4978663;28;20801;-55
2022/05/03 12:59:06;;;;;;;4.90;4.70;;;21.90;99.10;;;;;;5002939;28;20231;-55
2022/05/03 13:01:35;;;;;;;4.93;4.13;;;21.70;99.00;;;;;;4969390;28;20286;-55
2022/05/03 13:04:02;;;;;;;5.03;4.60;;;21.60;99.90;;;;;;4969216;28;20251;-55
2022/05/03 13:06:29;;;;;;;6.77;4.63;;;21.60;99.90;;;;;;4969305;28;20204;-55
2022/05/03 13:08:56;;;;;;;4.47;4.23;;;21.50;99.40;;;;;;4974260;28;20246;-55
2022/05/03 13:11:23;;;;;;;4.47;4.17;;;21.40;99.90;;;;;;4994883;28;20204;-56
2022/05/03 13:13:50;;;;;;;5.57;5.17;;;21.40;99.90;;;;;;4969046;28;20290;-55
2022/05/03 13:16:19;;;;;;;4.67;4.37;;;21.50;99.90;;;;;;4969144;28;20204;-54
2022/05/03 13:18:45;;;;;;;5.03;4.73;;;21.70;99.40;;;;;;4969366;28;20225;-55
2022/05/03 13:21:12;;;;;;;4.17;3.87;;;21.70;99.90;;;;;;4969133;28;20621;-55
2022/05/03 13:23:40;;;;;;;4.17;3.93;;;21.50;99.20;;;;;;4997668;28;20225;-55
2022/05/03 13:26:07;;;;;;;4.63;4.43;;;21.40;98.30;;;;;;4970303;28;20250;-55
2022/05/03 13:28:34;;;;;;;4.60;4.33;;;21.60;99.90;;;;;;4968205;28;20297;-55
2022/05/03 13:31:01;;;;;;;5.00;4.70;;;21.70;98.50;;;;;;4971288;28;20209;-54
2022/05/03 13:33:29;;;;;;;4.77;4.37;;;21.80;98.00;;;;;;5005604;28;20293;-54
2022/05/03 13:41:25;;;;;;;7.83;7.23;;;22.10;99.30;;;;;;4970307;28;20286;-54
2022/05/03 13:43:52;;;;;;;7.20;6.63;;;21.90;99.60;;;;;;5006113;28;20224;-54
2022/05/03 13:46:19;;;;;;;8.10;7.47;;;21.80;99.90;;;;;;4972337;28;20258;-55
2022/05/03 13:48:47;;;;;;;6.70;6.07;;;21.50;99.50;;;;;;4972103;28;20205;-55